TLPC/SLU METAR and TAF weather

Enter ICAO airport designator
Station Type Date Time Source
TLPC METAR 2019/08/25 20:00 UTC NOAA

TLPC 252000Z 09008KT 9999 BKN026 30/25 Q1013 NOSIG


Station Type Date Time Source
TLPC Decoded METAR 2019/08/25 20:00 UTC NOAA

Station name not available
Aug 25, 2019 - 04:00 PM EDT / 2019.08.25 2000 UTC
Wind: from the E (090 degrees) at 9 MPH (8 KT):0
Visibility: greater than 7 mile(s):0
Sky conditions: mostly cloudy
Temperature: 86 F (30 C)
Heat index: 96.8 F (36.0 C):1
Dew Point: 77 F (25 C)
Relative Humidity: 74%
Pressure (altimeter): 29.91 in. Hg (1013 hPa)
ob: TLPC 252000Z 09008KT 9999 BKN026 30/25 Q1013 NOSIG
cycle: 20

Station Type Date Time Source
TLPC TAF 2019/08/25 18:15 UTC NOAA

TAF TAF TLPC 251715Z 2518/2618 09010KT 9999 SCT025 PROB30
TEMPO 2520/2601 SHRA PROB40
TEMPO 2615/2618 5000 SHRA FEW015CB BKN018

Example: see airport list